createdAt,value
2022-10-06T03:59:55.927Z,4.28
2022-10-06T04:04:02.235Z,4.88
2022-10-06T04:08:05.602Z,4.93
2022-10-06T04:12:08.710Z,5.32
2022-10-06T04:16:14.285Z,4.47
2022-10-06T04:20:18.819Z,2.90
2022-10-06T04:24:22.289Z,3.80
2022-10-06T04:28:26.122Z,3.58
2022-10-06T04:32:29.897Z,4.35
2022-10-06T04:36:36.118Z,5.22
2022-10-06T04:40:43.878Z,4.90
2022-10-06T04:44:47.208Z,9.55
2022-10-06T04:48:51.661Z,11.02
2022-10-06T04:52:56.582Z,7.55
2022-10-06T04:57:00.115Z,4.53
2022-10-06T05:01:04.318Z,5.07
2022-10-06T05:05:08.140Z,4.05
2022-10-06T05:09:15.220Z,4.72
2022-10-06T05:13:19.108Z,6.30
2022-10-06T05:17:22.054Z,5.32
2022-10-06T05:21:27.756Z,4.32
2022-10-06T05:25:32.862Z,4.43
2022-10-06T05:29:36.744Z,4.22
2022-10-06T05:33:40.191Z,3.63
2022-10-06T05:37:43.716Z,3.50
2022-10-06T05:41:48.853Z,3.08
2022-10-06T05:45:56.144Z,2.15
2022-10-06T05:49:59.610Z,3.08
2022-10-06T05:54:04.042Z,3.17
2022-10-06T05:58:08.809Z,3.70
2022-10-06T06:02:12.414Z,3.40
2022-10-06T06:06:21.256Z,3.08
2022-10-06T06:10:24.719Z,2.80
2022-10-06T06:14:43.727Z,3.20
2022-10-06T06:18:47.353Z,2.78
2022-10-06T06:22:54.415Z,3.33
2022-10-06T06:26:57.773Z,3.72
2022-10-06T06:31:04.473Z,4.00
2022-10-06T06:35:08.677Z,3.50
2022-10-06T06:39:14.594Z,4.18
2022-10-06T06:43:17.626Z,4.22
2022-10-06T06:47:25.923Z,5.03
2022-10-06T06:51:30.225Z,5.47
2022-10-06T06:55:33.267Z,6.93
2022-10-06T06:59:38.625Z,6.82
2022-10-06T07:03:57.173Z,5.10
2022-10-06T07:08:02.079Z,4.47
2022-10-06T07:12:05.984Z,3.95
2022-10-06T07:16:29.427Z,2.85
2022-10-06T07:20:51.624Z,3.38
2022-10-06T07:25:12.763Z,2.47
2022-10-06T07:29:15.902Z,3.00
2022-10-06T07:33:18.997Z,2.92
2022-10-06T07:37:24.636Z,2.15
2022-10-06T07:41:28.923Z,2.65
2022-10-06T07:45:42.374Z,3.10
2022-10-06T07:49:47.903Z,2.40
2022-10-06T07:53:52.803Z,1.92
2022-10-06T07:57:55.813Z,2.13
2022-10-06T08:01:59.378Z,2.10
2022-10-06T08:06:05.995Z,1.90
2022-10-06T08:10:11.083Z,1.75
2022-10-06T08:14:15.957Z,2.58
2022-10-06T08:18:44.296Z,2.47
2022-10-06T08:22:43.125Z,2.50
2022-10-06T08:26:48.130Z,2.45
2022-10-06T08:30:53.011Z,2.28
2022-10-06T08:34:56.984Z,2.17
2022-10-06T08:39:00.695Z,1.80
2022-10-06T08:43:05.567Z,2.03
2022-10-06T08:47:16.422Z,2.50
2022-10-06T08:51:36.870Z,1.98
2022-10-06T08:55:43.907Z,2.42
2022-10-06T08:59:53.773Z,1.92
2022-10-06T09:04:02.430Z,2.25
2022-10-06T09:08:24.794Z,1.60
2022-10-06T09:12:36.098Z,1.42
2022-10-06T09:16:45.872Z,1.58
2022-10-06T09:20:55.700Z,1.67
2022-10-06T09:25:03.059Z,1.30
2022-10-06T09:29:06.526Z,1.80
2022-10-06T09:33:22.864Z,1.80
2022-10-06T09:37:25.883Z,1.52
2022-10-06T09:41:32.788Z,1.42
2022-10-06T09:45:36.609Z,1.60
2022-10-06T09:49:41.930Z,1.42
2022-10-06T09:53:46.520Z,1.27
2022-10-06T09:57:51.435Z,1.48
2022-10-06T10:01:57.141Z,1.83
2022-10-06T10:06:03.845Z,1.60
2022-10-06T10:10:22.259Z,1.65
2022-10-06T10:14:25.728Z,1.73
2022-10-06T10:18:33.390Z,1.38
2022-10-06T10:22:41.690Z,1.80
2022-10-06T10:26:55.539Z,1.65
2022-10-06T10:31:04.588Z,1.73
2022-10-06T10:35:18.716Z,1.67
2022-10-06T10:39:37.244Z,1.75
2022-10-06T10:43:46.056Z,1.83
2022-10-06T10:47:50.755Z,1.73
2022-10-06T10:51:58.461Z,1.65
2022-10-06T10:56:04.932Z,1.30
2022-10-06T11:00:10.398Z,1.70
2022-10-06T11:04:15.003Z,1.15
2022-10-06T11:08:26.640Z,1.58
2022-10-06T11:12:44.625Z,1.30
2022-10-06T11:16:54.249Z,1.67
2022-10-06T11:21:01.771Z,1.45
2022-10-06T11:25:16.499Z,1.65
2022-10-06T11:29:34.950Z,1.70
2022-10-06T11:33:48.806Z,1.92
2022-10-06T11:37:58.054Z,1.08
2022-10-06T11:42:10.327Z,1.63
2022-10-06T11:46:38.346Z,1.45
2022-10-06T11:50:46.983Z,1.85
2022-10-06T11:54:53.443Z,2.42
2022-10-06T11:59:11.933Z,1.40
2022-10-06T12:03:49.177Z,1.40
2022-10-06T12:08:16.899Z,1.33
2022-10-06T12:13:07.218Z,1.40
2022-10-06T12:17:20.091Z,1.48
2022-10-06T12:21:47.223Z,1.60
2022-10-06T12:25:56.934Z,2.05
2022-10-06T12:30:06.089Z,1.52
2022-10-06T12:34:42.868Z,1.40
2022-10-06T12:39:05.855Z,1.33
2022-10-06T12:43:34.234Z,1.65
2022-10-06T12:47:42.049Z,1.40
2022-10-06T12:51:50.034Z,1.35
2022-10-06T12:56:03.289Z,1.50
2022-10-06T13:00:23.651Z,2.20
2022-10-06T13:04:43.638Z,2.00
2022-10-06T13:08:47.190Z,1.65
2022-10-06T13:16:56.591Z,1.40
2022-10-06T13:21:02.028Z,1.45
2022-10-06T13:25:06.135Z,1.20
2022-10-06T13:29:20.701Z,1.42
2022-10-06T13:33:30.331Z,1.60
2022-10-06T13:37:34.108Z,1.10
2022-10-06T13:41:40.103Z,0.95
2022-10-06T13:45:44.729Z,1.77
2022-10-06T13:49:53.728Z,1.17
2022-10-06T13:53:59.022Z,1.20
2022-10-06T13:58:11.642Z,1.20
2022-10-06T14:02:26.672Z,1.25
2022-10-06T14:06:31.532Z,1.48
2022-10-06T14:10:46.412Z,1.13
2022-10-06T14:14:52.361Z,1.20
2022-10-06T14:18:57.219Z,1.25
2022-10-06T14:23:02.087Z,1.45
2022-10-06T14:27:07.527Z,1.23
2022-10-06T14:31:14.512Z,1.05
2022-10-06T14:35:18.041Z,1.58
2022-10-06T14:39:23.141Z,1.10
2022-10-06T14:43:26.196Z,1.13
2022-10-06T14:47:30.621Z,1.73
2022-10-06T14:51:36.617Z,2.03
2022-10-06T14:55:41.866Z,1.45
2022-10-06T14:59:44.935Z,1.10
2022-10-06T15:03:53.105Z,1.63
2022-10-06T15:08:11.163Z,1.23
2022-10-06T15:12:16.470Z,1.45
2022-10-06T15:16:20.332Z,1.50
2022-10-06T15:20:23.463Z,1.58
2022-10-06T15:24:26.418Z,1.77
2022-10-06T15:28:48.559Z,1.08
2022-10-06T15:32:52.082Z,1.77
2022-10-06T15:36:56.598Z,1.67
2022-10-06T15:41:05.446Z,2.22
2022-10-06T15:45:11.615Z,1.63
2022-10-06T15:49:16.883Z,1.70
2022-10-06T15:53:22.594Z,1.63
2022-10-06T15:57:26.071Z,1.63
2022-10-06T16:01:41.298Z,1.88
2022-10-06T16:05:51.471Z,1.63
2022-10-06T16:09:54.418Z,1.52
2022-10-06T16:13:57.684Z,2.22
2022-10-06T16:18:02.625Z,2.05
2022-10-06T16:22:07.452Z,1.73
2022-10-06T16:26:11.037Z,1.83
2022-10-06T16:30:14.935Z,1.40
2022-10-06T16:34:19.617Z,1.90
2022-10-06T16:38:23.231Z,1.35
2022-10-06T16:42:26.370Z,1.60
2022-10-06T16:46:32.127Z,1.65
2022-10-06T16:50:36.725Z,1.60
2022-10-06T16:54:40.465Z,1.80
2022-10-06T16:58:45.748Z,1.95
2022-10-06T17:02:49.357Z,1.63
2022-10-06T17:06:56.484Z,1.75
2022-10-06T17:11:04.815Z,1.95
2022-10-06T17:15:09.207Z,2.17
2022-10-06T17:19:14.250Z,1.77
2022-10-06T17:23:18.997Z,1.45
2022-10-06T17:27:22.766Z,1.60
2022-10-06T17:31:33.003Z,1.30
2022-10-06T17:35:39.188Z,1.60
2022-10-06T17:39:47.008Z,1.80
2022-10-06T17:43:51.614Z,1.77
2022-10-06T17:47:55.142Z,1.10
2022-10-06T17:51:59.120Z,1.00
2022-10-06T17:56:08.527Z,1.38
2022-10-06T18:00:12.933Z,1.30
2022-10-06T18:04:17.404Z,1.35
2022-10-06T18:08:23.963Z,1.70
2022-10-06T18:12:29.200Z,1.25
2022-10-06T18:16:36.980Z,1.50
2022-10-06T18:20:41.902Z,2.08
2022-10-06T18:24:45.790Z,2.30
2022-10-06T18:28:51.785Z,1.77
2022-10-06T18:37:19.094Z,1.70
2022-10-06T18:41:24.757Z,4.20
2022-10-06T18:45:46.823Z,2.70
2022-10-06T18:49:50.284Z,2.22
2022-10-06T18:53:55.360Z,2.75
2022-10-06T18:57:58.943Z,3.20
2022-10-06T19:02:03.889Z,2.63
2022-10-06T19:06:08.137Z,2.50
2022-10-06T19:10:11.168Z,2.72
2022-10-06T19:14:16.787Z,1.95
2022-10-06T19:18:21.503Z,2.20
2022-10-06T19:22:25.379Z,2.67
2022-10-06T19:26:29.189Z,3.45
2022-10-06T19:30:32.757Z,3.63
2022-10-06T19:34:38.702Z,2.78
2022-10-06T19:38:42.424Z,3.78
2022-10-06T19:42:48.797Z,2.58
2022-10-06T19:46:51.760Z,3.35
2022-10-06T19:50:56.510Z,2.42
2022-10-06T19:55:00.638Z,2.70
2022-10-06T19:59:04.995Z,2.85
2022-10-06T20:03:09.235Z,2.50
2022-10-06T20:07:14.153Z,2.40
2022-10-06T20:11:19.020Z,2.50
2022-10-06T20:15:23.760Z,2.38
2022-10-06T20:19:27.711Z,3.00
2022-10-06T20:23:33.146Z,2.83
2022-10-06T20:27:36.273Z,2.50
2022-10-06T20:31:41.995Z,3.03
2022-10-06T20:35:45.919Z,2.38
2022-10-06T20:40:08.498Z,3.53
2022-10-06T20:44:12.380Z,3.40
2022-10-06T20:48:16.023Z,3.63
2022-10-06T20:52:19.096Z,3.72
2022-10-06T20:56:24.167Z,3.28
2022-10-06T21:00:27.783Z,3.35
2022-10-06T21:04:31.302Z,3.50
2022-10-06T21:08:34.752Z,2.97
2022-10-06T21:12:39.755Z,2.80
2022-10-06T21:16:44.842Z,4.72
2022-10-06T21:20:58.131Z,3.90
2022-10-06T21:25:01.076Z,3.88
2022-10-06T21:29:05.984Z,3.90
2022-10-06T21:33:09.466Z,4.40
2022-10-06T21:37:13.750Z,4.95
2022-10-06T21:41:37.582Z,3.58
2022-10-06T21:45:42.665Z,3.92
2022-10-06T21:49:45.759Z,3.45
2022-10-06T21:53:49.231Z,4.43
2022-10-06T21:57:52.586Z,3.70
2022-10-06T22:01:57.704Z,3.10
2022-10-06T22:06:04.538Z,3.90
2022-10-06T22:10:08.439Z,3.55
2022-10-06T22:14:14.047Z,4.10
2022-10-06T22:18:18.996Z,4.72
2022-10-06T22:22:21.933Z,4.13
2022-10-06T22:26:26.324Z,4.40
2022-10-06T22:30:29.665Z,5.45
2022-10-06T22:34:34.199Z,5.90
2022-10-06T22:38:37.258Z,5.32
2022-10-06T22:42:40.724Z,4.63
2022-10-06T22:46:44.676Z,5.50
2022-10-06T22:50:50.380Z,5.13
2022-10-06T22:54:53.766Z,5.57
2022-10-06T22:59:00.255Z,4.93
2022-10-06T23:03:04.024Z,5.30
2022-10-06T23:07:08.575Z,5.55
2022-10-06T23:11:14.497Z,4.38
2022-10-06T23:15:17.995Z,4.15
2022-10-06T23:19:20.991Z,5.00
2022-10-06T23:23:25.951Z,4.80
2022-10-06T23:27:29.568Z,5.10
2022-10-06T23:31:32.667Z,5.57
2022-10-06T23:35:36.129Z,6.63
2022-10-06T23:39:41.104Z,5.30
2022-10-06T23:43:44.147Z,6.07
2022-10-06T23:47:47.847Z,6.40
2022-10-06T23:51:51.322Z,6.45
2022-10-06T23:55:55.813Z,7.22
2022-10-06T23:59:59.224Z,6.00
